Bowral, Australia
Current Conditions -  °F | °C
As of 3:00 PM on Saturday 25 Oct 2014 (Local Time) from YSNW Reporting Station
Broken Clouds Broken Clouds  
Wind Chill: 70°   Ceiling: 1200
Heat Index: 70°   Visibility: 6mi
Dew Point: 63°   Wind: 17mph
Humidity: 78%   Direction: 130°SE
Pressure: 29.94"   Gusts: NA
Location:  34.48°S, 150.42°E
Report Text: YSNW 250400Z AUTO 13015KT 9999 // BKN012 21/17 Q1014
Loading
Personal Weather Stations






























Interactive Weather Map
Tropical Storm Tracking
New forecast layout! Learn more

10-Day Weather Forecast

Advertisements
Track Severe Weather on mobile